Time,TemperatureF,DewpointF,PressureIn,WindDirection,WindDirectionDegrees,WindSpeedMPH,WindSpeedGustMPH,Humidity,HourlyPrecipIn,Conditions,Clouds,dailyrainin,SoftwareType,DateUTC
2013-07-30 00:06:00,63.5,38.1,29.56,West,278,0.0,0.0,39,0.00,,,0.00,VWS V14.01,2013-07-30 04:06:00,
2013-07-30 00:21:00,63.3,39.2,29.56,West,278,0.0,0.0,41,0.00,,,0.00,VWS V14.01,2013-07-30 04:21:00,
2013-07-30 00:36:00,63.0,39.5,29.56,West,278,0.0,0.0,42,0.00,,,0.00,VWS V14.01,2013-07-30 04:36:00,
2013-07-30 00:50:00,62.4,39.7,29.56,West,278,0.0,0.0,43,0.00,,,0.00,VWS V14.01,2013-07-30 04:50:00,
2013-07-30 01:05:00,62.2,40.1,29.56,West,278,0.0,0.0,44,0.00,,,0.00,VWS V14.01,2013-07-30 05:05:00,
2013-07-30 01:20:00,61.9,39.8,29.56,West,278,0.0,0.0,44,0.00,,,0.00,VWS V14.01,2013-07-30 05:20:00,
2013-07-30 01:35:00,61.5,40.0,29.56,West,278,0.0,0.0,45,0.00,,,0.00,VWS V14.01,2013-07-30 05:35:00,
2013-07-30 01:51:00,61.5,40.6,29.56,West,278,0.0,0.0,46,0.00,,,0.00,VWS V14.01,2013-07-30 05:51:00,
2013-07-30 02:06:00,61.3,40.4,29.56,West,278,0.0,0.0,46,0.00,,,0.00,VWS V14.01,2013-07-30 06:06:00,
2013-07-30 02:20:00,61.5,41.1,29.56,West,278,0.0,0.0,47,0.00,,,0.00,VWS V14.01,2013-07-30 06:20:00,
2013-07-30 02:35:00,61.5,41.7,29.56,West,278,0.0,0.0,48,0.00,,,0.00,VWS V14.01,2013-07-30 06:35:00,
2013-07-30 02:51:00,61.5,41.7,29.56,West,278,0.0,0.0,48,0.00,,,0.00,VWS V14.01,2013-07-30 06:51:00,
2013-07-30 03:06:00,61.7,42.4,29.56,West,278,0.0,0.0,49,0.00,,,0.00,VWS V14.01,2013-07-30 07:06:00,
2013-07-30 03:20:00,61.7,42.4,29.56,West,278,0.0,0.0,49,0.00,,,0.00,VWS V14.01,2013-07-30 07:20:00,
2013-07-30 03:36:00,61.9,43.1,29.56,West,278,0.0,0.0,50,0.00,,,0.00,VWS V14.01,2013-07-30 07:36:00,
2013-07-30 03:51:00,61.7,42.9,29.56,West,278,0.0,0.0,50,0.00,,,0.00,VWS V14.01,2013-07-30 07:51:00,
2013-07-30 04:06:00,61.7,43.4,29.56,West,278,0.0,0.0,51,0.00,,,0.00,VWS V14.01,2013-07-30 08:06:00,
2013-07-30 04:20:00,61.3,43.1,29.56,West,278,0.0,0.0,51,0.00,,,0.00,VWS V14.01,2013-07-30 08:20:00,
2013-07-30 04:36:00,61.3,43.1,29.56,West,278,0.0,0.0,51,0.00,,,0.00,VWS V14.01,2013-07-30 08:36:00,
2013-07-30 04:51:00,61.3,43.1,29.56,West,278,0.0,0.0,51,0.00,,,0.00,VWS V14.01,2013-07-30 08:51:00,
2013-07-30 05:05:00,61.3,43.6,29.59,West,278,0.0,0.0,52,0.00,,,0.00,VWS V14.01,2013-07-30 09:05:00,
2013-07-30 05:21:00,61.2,43.4,29.59,West,278,0.0,0.0,52,0.00,,,0.00,VWS V14.01,2013-07-30 09:21:00,
2013-07-30 05:35:00,61.0,43.2,29.59,West,278,0.0,0.0,52,0.00,,,0.00,VWS V14.01,2013-07-30 09:35:00,
2013-07-30 05:51:00,60.8,43.1,29.59,NNE,28,0.0,0.0,52,0.00,,,0.00,VWS V14.01,2013-07-30 09:51:00,
2013-07-30 06:05:00,60.6,42.9,29.59,NW,318,0.0,0.0,52,0.00,,,0.00,VWS V14.01,2013-07-30 10:05:00,
2013-07-30 06:20:00,60.4,42.8,29.59,NW,318,0.0,0.0,52,0.00,,,0.00,VWS V14.01,2013-07-30 10:20:00,
2013-07-30 06:36:00,60.3,42.6,29.59,NW,318,0.0,0.0,52,0.00,,,0.00,VWS V14.01,2013-07-30 10:36:00,
2013-07-30 06:50:00,60.3,42.6,29.59,NW,318,0.0,0.0,52,0.00,,,0.00,VWS V14.01,2013-07-30 10:50:00,
2013-07-30 07:06:00,60.3,43.1,29.59,NW,318,0.0,0.0,53,0.00,,,0.00,VWS V14.01,2013-07-30 11:06:00,
2013-07-30 07:21:00,60.4,43.2,29.62,NW,318,0.0,0.0,53,0.00,,,0.00,VWS V14.01,2013-07-30 11:21:00,
2013-07-30 07:36:00,60.6,43.4,29.62,NW,318,0.0,0.0,53,0.00,,,0.00,VWS V14.01,2013-07-30 11:36:00,
2013-07-30 07:50:00,61.0,42.7,29.62,NW,318,0.0,0.0,51,0.00,,,0.00,VWS V14.01,2013-07-30 11:50:00,
2013-07-30 08:06:00,61.7,42.9,29.62,NW,318,0.0,0.0,50,0.00,,,0.00,VWS V14.01,2013-07-30 12:06:00,
2013-07-30 08:21:00,63.0,43.0,29.62,NW,318,0.0,0.0,48,0.00,,,0.00,VWS V14.01,2013-07-30 12:21:00,
2013-07-30 08:35:00,64.0,41.7,29.62,East,82,0.0,0.0,44,0.00,,,0.00,VWS V14.01,2013-07-30 12:35:00,
2013-07-30 08:51:00,65.3,39.7,29.62,North,3,0.0,0.0,39,0.00,,,0.00,VWS V14.01,2013-07-30 12:51:00,
2013-07-30 09:06:00,66.6,37.3,29.62,NE,38,0.0,0.0,34,0.00,,,0.00,VWS V14.01,2013-07-30 13:06:00,
2013-07-30 09:21:00,67.3,34.8,29.62,NE,40,0.0,0.0,30,0.00,,,0.00,VWS V14.01,2013-07-30 13:21:00,
2013-07-30 09:35:00,67.8,33.5,29.62,NE,43,0.0,0.0,28,0.00,,,0.00,VWS V14.01,2013-07-30 13:35:00,
2013-07-30 09:51:00,69.4,32.1,29.62,North,10,0.0,0.0,25,0.00,,,0.00,VWS V14.01,2013-07-30 13:51:00,
2013-07-30 10:06:00,70.3,30.8,29.59,East,81,0.0,0.0,23,0.00,,,0.00,VWS V14.01,2013-07-30 14:06:00,
2013-07-30 10:20:00,70.5,31.0,29.59,East,95,0.0,0.0,23,0.00,,,0.00,VWS V14.01,2013-07-30 14:20:00,
2013-07-30 10:36:00,72.0,31.1,29.59,NW,315,0.0,0.0,22,0.00,,,0.00,VWS V14.01,2013-07-30 14:36:00,
2013-07-30 10:50:00,73.8,31.4,29.59,ESE,107,0.0,0.0,21,0.00,,,0.00,VWS V14.01,2013-07-30 14:50:00,
2013-07-30 11:05:00,74.1,31.7,29.59,East,87,0.0,0.0,21,0.00,,,0.00,VWS V14.01,2013-07-30 15:05:00,
2013-07-30 11:20:00,75.7,31.9,29.59,ENE,58,0.0,0.0,20,0.00,,,0.00,VWS V14.01,2013-07-30 15:20:00,
2013-07-30 11:35:00,77.5,33.3,29.56,ENE,74,0.0,0.0,20,0.00,,,0.00,VWS V14.01,2013-07-30 15:35:00,
2013-07-30 11:51:00,78.8,30.4,29.56,NE,34,0.0,0.0,17,0.00,,,0.00,VWS V14.01,2013-07-30 15:51:00,
2013-07-30 12:05:00,79.7,31.1,29.56,North,353,0.0,0.0,17,0.00,,,0.00,VWS V14.01,2013-07-30 16:05:00,
2013-07-30 12:20:00,79.2,30.6,29.56,North,0,0.0,0.0,17,0.00,,,0.00,VWS V14.01,2013-07-30 16:20:00,
2013-07-30 12:35:00,80.2,31.5,29.56,North,350,0.0,0.0,17,0.00,,,0.00,VWS V14.01,2013-07-30 16:35:00,
2013-07-30 12:50:00,81.7,32.7,29.56,East,88,0.0,0.0,17,0.00,,,0.00,VWS V14.01,2013-07-30 16:50:00,
2013-07-30 13:05:00,82.2,33.1,29.56,East,88,0.0,0.0,17,0.00,,,0.00,VWS V14.01,2013-07-30 17:05:00,
2013-07-30 13:21:00,82.0,33.0,29.56,NE,35,0.0,0.0,17,0.00,,,0.00,VWS V14.01,2013-07-30 17:21:00,
2013-07-30 13:36:00,83.3,32.5,29.53,East,85,0.0,0.0,16,0.00,,,0.00,VWS V14.01,2013-07-30 17:36:00,
2013-07-30 13:50:00,82.9,32.2,29.53,East,82,0.0,0.0,16,0.00,,,0.00,VWS V14.01,2013-07-30 17:50:00,
2013-07-30 14:06:00,83.1,32.3,29.53,NNW,345,0.0,0.0,16,0.00,,,0.00,VWS V14.01,2013-07-30 18:06:00,
2013-07-30 14:21:00,84.0,33.0,29.53,NNE,14,0.0,3.1,16,0.00,,,0.00,VWS V14.01,2013-07-30 18:21:00,
2013-07-30 14:36:00,84.4,33.3,29.53,WNW,289,0.0,0.0,16,0.00,,,0.00,VWS V14.01,2013-07-30 18:36:00,
2013-07-30 14:50:00,84.2,33.2,29.53,NW,322,0.0,0.0,16,0.00,,,0.00,VWS V14.01,2013-07-30 18:50:00,
2013-07-30 15:05:00,83.1,32.3,29.53,North,353,0.0,0.0,16,0.00,,,0.00,VWS V14.01,2013-07-30 19:05:00,
2013-07-30 15:21:00,84.6,33.5,29.53,East,93,0.0,0.0,16,0.00,,,0.00,VWS V14.01,2013-07-30 19:21:00,
2013-07-30 15:35:00,84.6,33.5,29.53,East,99,0.0,0.0,16,0.00,,,0.00,VWS V14.01,2013-07-30 19:35:00,
2013-07-30 15:50:00,84.7,33.6,29.50,ENE,69,0.0,0.0,16,0.00,,,0.00,VWS V14.01,2013-07-30 19:50:00,
2013-07-30 16:05:00,84.4,33.3,29.50,NW,318,0.0,0.0,16,0.00,,,0.00,VWS V14.01,2013-07-30 20:05:00,
2013-07-30 16:20:00,81.5,32.5,29.50,WNW,301,0.0,0.0,17,0.00,,,0.00,VWS V14.01,2013-07-30 20:20:00,
2013-07-30 16:35:00,80.1,31.4,29.50,NW,312,0.0,0.0,17,0.00,,,0.00,VWS V14.01,2013-07-30 20:35:00,
2013-07-30 16:51:00,79.0,30.5,29.50,WNW,291,0.0,0.0,17,0.00,,,0.00,VWS V14.01,2013-07-30 20:51:00,
2013-07-30 17:06:00,79.9,31.2,29.50,West,280,0.0,0.0,17,0.00,,,0.00,VWS V14.01,2013-07-30 21:06:00,
2013-07-30 17:20:00,78.8,30.4,29.50,WNW,291,0.0,0.0,17,0.00,,,0.00,VWS V14.01,2013-07-30 21:20:00,
2013-07-30 17:36:00,78.1,31.2,29.50,SW,221,0.0,0.0,18,0.00,,,0.00,VWS V14.01,2013-07-30 21:36:00,
2013-07-30 17:51:00,76.3,29.7,29.50,WNW,299,0.0,0.0,18,0.00,,,0.00,VWS V14.01,2013-07-30 21:51:00,
2013-07-30 18:05:00,75.7,29.3,29.50,WNW,287,0.0,0.0,18,0.00,,,0.00,VWS V14.01,2013-07-30 22:05:00,
2013-07-30 18:21:00,75.7,29.3,29.50,WNW,288,0.0,0.0,18,0.00,,,0.00,VWS V14.01,2013-07-30 22:21:00,
2013-07-30 18:36:00,75.6,31.7,29.50,WNW,283,0.0,0.0,20,0.00,,,0.00,VWS V14.01,2013-07-30 22:36:00,
2013-07-30 18:51:00,75.0,32.5,29.50,WNW,283,0.0,0.0,21,0.00,,,0.00,VWS V14.01,2013-07-30 22:51:00,
2013-07-30 19:05:00,74.7,33.3,29.50,WNW,283,0.0,0.0,22,0.00,,,0.00,VWS V14.01,2013-07-30 23:05:00,
2013-07-30 19:20:00,74.1,32.9,29.50,WNW,283,0.0,0.0,22,0.00,,,0.00,VWS V14.01,2013-07-30 23:20:00,
2013-07-30 19:36:00,73.8,32.6,29.50,WNW,283,0.0,0.0,22,0.00,,,0.00,VWS V14.01,2013-07-30 23:36:00,
2013-07-30 19:50:00,73.0,32.0,29.50,WNW,283,0.0,0.0,22,0.00,,,0.00,VWS V14.01,2013-07-30 23:50:00,
2013-07-30 20:06:00,72.3,32.5,29.50,WNW,283,0.0,0.0,23,0.00,,,0.00,VWS V14.01,2013-07-31 00:06:00,
2013-07-30 20:21:00,71.6,32.9,29.50,WNW,283,0.0,0.0,24,0.00,,,0.00,VWS V14.01,2013-07-31 00:21:00,
2013-07-30 20:35:00,71.1,33.5,29.50,WNW,283,0.0,0.0,25,0.00,,,0.00,VWS V14.01,2013-07-31 00:35:00,
2013-07-30 20:50:00,70.7,34.2,29.50,WNW,283,0.0,0.0,26,0.00,,,0.00,VWS V14.01,2013-07-31 00:50:00,
2013-07-30 21:06:00,70.5,35.0,29.50,WNW,283,0.0,0.0,27,0.00,,,0.00,VWS V14.01,2013-07-31 01:06:00,
2013-07-30 21:21:00,70.2,36.5,29.50,WNW,283,0.0,0.0,29,0.00,,,0.00,VWS V14.01,2013-07-31 01:21:00,
2013-07-30 21:35:00,70.0,38.8,29.50,WNW,283,0.0,0.0,32,0.00,,,0.00,VWS V14.01,2013-07-31 01:35:00,
2013-07-30 21:51:00,69.6,39.3,29.50,WNW,283,0.0,0.0,33,0.00,,,0.00,VWS V14.01,2013-07-31 01:51:00,
2013-07-30 22:06:00,69.4,39.1,29.50,WNW,283,0.0,0.0,33,0.00,,,0.00,VWS V14.01,2013-07-31 02:06:00,
2013-07-30 22:20:00,69.3,39.7,29.50,WNW,283,0.0,0.0,34,0.00,,,0.00,VWS V14.01,2013-07-31 02:20:00,
2013-07-30 22:35:00,68.7,40.0,29.50,WNW,283,0.0,0.0,35,0.00,,,0.00,VWS V14.01,2013-07-31 02:35:00,
2013-07-30 22:51:00,68.2,40.2,29.50,WNW,283,0.0,0.0,36,0.00,,,0.00,VWS V14.01,2013-07-31 02:51:00,
2013-07-30 23:05:00,68.0,40.8,29.50,WNW,283,0.0,0.0,37,0.00,,,0.00,VWS V14.01,2013-07-31 03:05:00,
2013-07-30 23:21:00,67.8,42.0,29.50,WNW,283,0.0,0.0,39,0.00,,,0.00,VWS V14.01,2013-07-31 03:21:00,
2013-07-30 23:36:00,67.6,42.5,29.50,WNW,283,0.0,0.0,40,0.00,,,0.00,VWS V14.01,2013-07-31 03:36:00,
2013-07-30 23:51:00,67.3,43.4,29.50,WNW,283,0.0,0.0,42,0.00,,,0.00,VWS V14.01,2013-07-31 03:51:00,